Sonic Adventure (DX): Overall Rankings

Records: Times | Rings | Scores | Races | Bosses | Freestyle
Leaders: Times | Rings | Scores | Races | Bosses | Freestyle | Overall
Rank Player Percent Points Date
1 Gamepro011 97.7% 394 08-19-19
1 Sonicspeedruner 97.7% 394 08-19-19
3 DarkPolarNight 96.4% 627 08-19-19
4 Jawzun 92.9% 1258 08-19-19
5 Dashjump 91.4% 1532 08-19-19
6 Avento128bits 89.4% 1892 08-19-19
7 DarkspinesSonic 89.3% 1899 08-19-19
8 ike6252 89.1% 1938 08-19-19
9 F-Man 87.2% 2268 08-19-19
10 Coolfansonic 86.8% 2344 08-19-19
11 TheRealShadnic 84.8% 2702 08-19-19
12 HyperSonic7701 83.9% 2863 08-19-19
13 yoshifan 82.2% 3166 08-19-19
14 frankoredstrato 81.8% 3236 08-19-19
15 francisco 80.9% 3408 08-19-19
16 Marth 80.7% 3432 08-19-19
17 InferSaime 79.4% 3667 08-19-19
18 PfoSonic 79.0% 3743 08-19-19
19 Paragod 78.5% 3825 08-19-19
20 THC98 77.7% 3967 08-19-19
21 Stefan 75.3% 4399 08-19-19
22 RPGnutter 73.2% 4778 08-19-19
23 bertin 73.0% 4818 08-19-19
24 Dekuboy 72.0% 4985 08-19-19
25 sonicam 71.0% 5171 08-19-19
26 drminus 69.7% 5404 08-19-19
27 chaos shadow 68.9% 5540 08-19-19
28 chainchump 65.7% 6124 08-19-19
29 Combo 65.2% 6214 08-19-19
30 SkyLights 63.9% 6429 08-19-19
31 xXMegaManXx 62.3% 6729 08-19-19
32 Diamond 61.9% 6792 08-19-19
33 Auriman1 59.9% 7159 08-19-19
34 OmegaDJ 59.8% 7174 08-19-19
35 GerbilSoft 59.8% 7178 08-19-19
36 magnum12 58.9% 7328 08-19-19
37 Thorn 56.8% 7709 08-19-19
38 P1 Pause 56.5% 7763 08-19-19
39 mike89 55.4% 7953 08-19-19
40 Groudon199 53.5% 8290 08-19-19
41 Dave Cramer 53.5% 8298 08-19-19
42 Parax 52.9% 8406 08-19-19
43 Shadow Jacky 52.4% 8499 08-19-19
44 Zurggriff 47.8% 9305 08-19-19
45 Psymar 47.3% 9394 08-19-19
46 Arch 46.5% 9536 08-19-19
47 Niczur 46.1% 9616 08-19-19
48 Chao_Fan 45.5% 9722 08-19-19
49 mauserman 44.8% 9849 08-19-19
50 Quartz 44.4% 9918 08-19-19
51 Nim 44.2% 9959 08-19-19
52 teamblackarms 43.7% 10044 08-19-19
53 Psyknux 42.9% 10183 08-19-19
54 James_Bertolli 42.6% 10235 08-19-19
55 Cyan Ryan 42.5% 10263 08-19-19
56 NintenDan 42.1% 10322 08-19-19
57 Turbos 41.5% 10435 08-19-19
58 Webber3000 41.5% 10440 08-19-19
59 Ring Rush 41.2% 10483 08-19-19
60 Fr3nZy 41.2% 10489 08-19-19
61 Cream147 41.1% 10501 08-19-19
62 videogamemaster777 40.9% 10538 08-19-19
63 Siavash Tazari 40.8% 10560 08-19-19
64 buddychaos0415 40.3% 10650 08-19-19
65 SadisticMystic 39.8% 10735 08-19-19
66 ethmar 39.5% 10800 08-19-19
67 eggFL 38.9% 10906 08-19-19
68 Calfd 38.2% 11021 08-19-19
69 SPVLABS 37.6% 11125 08-19-19
70 SB737 37.2% 11207 08-19-19
71 supersonic465 36.8% 11276 08-19-19
72 supersonicfan 36.2% 11383 08-19-19
73 FuzZerd 35.1% 11585 08-19-19
74 Aitamen 34.6% 11663 08-19-19
75 elecmouse101 34.2% 11743 08-19-19
76 BigAL49 34.2% 11749 08-19-19
77 danieldude 34.1% 11767 08-19-19
78 Austinf 33.5% 11859 08-19-19
79 metanightmare22 32.9% 11976 08-19-19
80 dabestgamer 32.5% 12053 08-19-19
81 MiStEr_ShAoLiN 32.3% 12075 08-19-19
82 Andrea Ritsu 31.5% 12215 08-19-19
83 itsPersonnal 31.4% 12244 08-19-19
84 Cybrax 30.6% 12377 08-19-19
85 JamminX42 30.4% 12417 08-19-19
86 SilvertheAlmighty 30.4% 12423 08-19-19
87 WeegeeZV 30.4% 12426 08-19-19
88 Mastakirby 30.0% 12483 08-19-19
89 VMU Player Banned 28.6% 12748 08-19-19
90 Omega Rafael Santos 28.2% 12810 08-19-19
91 Staf 28.0% 12853 08-19-19
92 The T 27.6% 12913 08-19-19
93 EngiNerd 27.4% 12964 08-19-19
94 lordmetalsonic 26.8% 13054 08-19-19
95 Hipertails12 26.7% 13089 08-19-19
96 welldooder64 26.2% 13162 08-19-19
97 GreatStar 26.2% 13177 08-19-19
98 The Great Lord Mick 26.0% 13214 08-19-19
99 Sondow 25.8% 13240 08-19-19
100 LinksDarkArrows 25.6% 13282 08-19-19
101 Skylace 24.7% 13431 08-19-19
102 a_moustache 23.9% 13588 08-19-19
103 Rolken 23.2% 13713 08-19-19
104 Spinballwizard 21.5% 14004 08-19-19
105 Xia 21.5% 14009 08-19-19
106 Kogen Player Banned 21.4% 14020 08-19-19
107 Don 21.1% 14077 08-19-19
108 CoEmpathy 21.1% 14081 08-19-19
109 f0rever_zer0 21.1% 14087 08-19-19
110 Twilisailor 21.0% 14101 08-19-19
111 Miles9999 21.0% 14107 08-19-19
112 Game_Complete 20.9% 14109 08-19-19
113 Cutiefox 20.9% 14121 08-19-19
114 andres430 20.2% 14245 08-19-19
115 Cruizer 20.0% 14271 08-19-19
116 iSonicKid2K 19.8% 14305 08-19-19
117 SADXTryHard 19.6% 14341 08-19-19
118 GarnetPrincess 19.2% 14423 08-19-19
119 N 19.1% 14439 08-19-19
120 AxlThunder 18.7% 14501 08-19-19
121 knuckles_sonic8 18.5% 14547 08-19-19
122 KinkyCadence 17.9% 14651 08-19-19
123 The Knuckles Chao 17.8% 14664 08-19-19
124 Team_Yoshi 17.8% 14670 08-19-19
125 Termon 17.6% 14698 08-19-19
126 LittleBigness 17.4% 14736 08-19-19
127 FoxBoy 17.4% 14745 08-19-19
127 SonicWinDX 17.4% 14745 08-19-19
129 Drakodan 16.7% 14872 08-19-19
130 Sonic Singularity 15.5% 15075 08-19-19
131 Pokemonmaster888 15.3% 15111 08-19-19
132 paulie9990 14.8% 15202 08-19-19
133 SilverSonic 14.3% 15302 08-19-19
134 MPit08 14.1% 15339 08-19-19
135 Mo Player Banned 13.9% 15367 08-19-19
136 koinu93 13.6% 15415 08-19-19
137 Cod4Scopes 13.3% 15466 08-19-19
138 Jerzia 13.2% 15486 08-19-19
139 HyperSonic64 13.2% 15496 08-19-19
140 Hunters13 13.1% 15509 08-19-19
141 booo95 13.0% 15523 08-19-19
142 Chawkk 12.9% 15539 08-19-19
143 SuperSonic101 12.8% 15563 08-19-19
144 Maxinfamily 12.6% 15590 08-19-19
145 R3FR4G 12.6% 15599 08-19-19
146 PsyBorg 12.3% 15646 08-19-19
147 Kanimayo_Jp 12.3% 15647 08-19-19
148 Flying Fox 12.2% 15662 08-19-19
149 LilZero 12.2% 15664 08-19-19
150 BrokenArthritis 12.2% 15675 08-19-19
151 Therio 11.8% 15745 08-19-19
152 sonicspeed 11.5% 15794 08-19-19
153 douglas 11.3% 15822 08-19-19
154 thewaytodawnnn 11.2% 15850 08-19-19
155 Matt_TY 11.1% 15873 08-19-19
156 ModifiedMonkee 11.0% 15883 08-19-19
157 SuperBlitzCraig 10.5% 15973 08-19-19
158 Cooljay 10.5% 15974 08-19-19
159 joecoolgames 10.5% 15978 08-19-19
160 SeaWolf 10.4% 15989 08-19-19
161 videogamer1014 10.1% 16039 08-19-19
162 AC-Tygo 9.8% 16092 08-19-19
163 welshmoose05 9.8% 16097 08-19-19
164 TFEC Headshot 9.6% 16131 08-19-19
165 crazy1993 9.6% 16137 08-19-19
166 OddCook 9.6% 16140 08-19-19
167 Mariobutch 9.5% 16152 08-19-19
168 Mcshuggets 9.4% 16161 08-19-19
169 Irregular Zero 9.1% 16226 08-19-19
170 nuckrieg 9.1% 16231 08-19-19
171 niscool 9.0% 16234 08-19-19
172 SonicAD 8.9% 16258 08-19-19
173 SirTobbii 8.7% 16294 08-19-19
174 Shadowthegreat 8.7% 16301 08-19-19
175 superjupi 8.6% 16305 08-19-19
176 Powerjohn25 8.5% 16337 08-19-19
177 SaviourDC 8.4% 16350 08-19-19
178 iarebored 8.4% 16352 08-19-19
179 sonamyfan666 8.4% 16354 08-19-19
180 SonicKnuckles 8.3% 16369 08-19-19
181 Werey 8.2% 16392 08-19-19
182 adf 7.9% 16440 08-19-19
183 Megaman EXE565 7.6% 16489 08-19-19
184 ArcticDragon 7.5% 16510 08-19-19
185 Platformer 7.3% 16537 08-19-19
186 Swift Hobo 7.2% 16567 08-19-19
187 FocusSight64 7.2% 16568 08-19-19
188 timpkmn89 7.2% 16569 08-19-19
189 Vicklaw 7.1% 16582 08-19-19
190 wheatrich 7.0% 16595 08-19-19
191 Rickyman48 6.9% 16611 08-19-19
192 Sm4sh 6.7% 16650 08-19-19
193 KitsuneYamaro 6.7% 16655 08-19-19
194 Triseena 6.5% 16691 08-19-19
195 CyberShadow 6.4% 16713 08-19-19
195 Starlight Sable 6.4% 16713 08-19-19
197 Destroyer121121 6.3% 16724 08-19-19
198 slade23 6.3% 16725 08-19-19
199 iden1 6.2% 16737 08-19-19
200 dShadow 6.2% 16740 08-19-19
201 IsisDazs 6.2% 16743 08-19-19
202 BlankTH 5.9% 16789 08-19-19
203 Badlex727 5.8% 16805 08-19-19
204 Monkeh 5.8% 16821 08-19-19
205 Richied 5.6% 16853 08-19-19
206 SonicU260 5.5% 16858 08-19-19
207 Swinkly 5.5% 16860 08-19-19
208 DaDude 5.5% 16861 08-19-19
209 Crispian 5.5% 16864 08-19-19
210 sonicd5 5.5% 16874 08-19-19
211 Zip 5.3% 16893 08-19-19
212 VeritasDL 5.2% 16912 08-19-19
213 tal39h 5.0% 16947 08-19-19
214 ALundstrom10 5.0% 16958 08-19-19
215 Kirbymon30 5.0% 16959 08-19-19
216 soniccoloursunleashed 4.8% 16995 08-19-19
217 Drflash55 4.7% 17007 08-19-19
218 Bass 4.6% 17029 08-19-19
219 Yish 4.6% 17032 08-19-19
220 neaolas 4.6% 17033 08-19-19
221 zapp 4.5% 17045 08-19-19
222 UninspiredUsername 4.5% 17048 08-19-19
223 Sonicsuperstar1 4.5% 17052 08-19-19
224 superiorsonic 4.4% 17059 08-19-19
225 gamefreak1292 4.4% 17066 08-19-19
226 Sora_yx 4.2% 17097 08-19-19
227 Chaos_Overlord 4.0% 17130 08-19-19
228 TakaRikka 3.9% 17144 08-19-19
229 Valfore 3.9% 17152 08-19-19
230 Dage4Aquatic 3.8% 17171 08-19-19
231 ShinigamiMachine 3.7% 17182 08-19-19
232 Regano1000 3.6% 17197 08-19-19
233 MK 3.5% 17218 08-19-19
234 Ace747 3.5% 17228 08-19-19
235 Jua Rever 3.3% 17255 08-19-19
236 HHNNBBHHN 3.1% 17295 08-19-19
237 Illidan 3.1% 17298 08-19-19
238 Venick409 3.1% 17300 08-19-19
239 Brian_pso 3.1% 17301 08-19-19
240 Sithwarrior26 3.0% 17308 08-19-19
241 nman36 3.0% 17309 08-19-19
242 Egor305 2.9% 17335 08-19-19
243 ingx24 2.9% 17336 08-19-19
244 TheChaosEmeraIds 2.9% 17338 08-19-19
245 Nickson98 2.8% 17351 08-19-19
245 SkyBon 2.8% 17351 08-19-19
247 FSSRandomvids 2.7% 17358 08-19-19
248 dekki1234 2.7% 17361 08-19-19
249 Fozer 2.7% 17370 08-19-19
250 sonic29887 2.6% 17376 08-19-19
251 Aiko 2.6% 17381 08-19-19
252 Colomb_30 2.6% 17382 08-19-19
253 TheUltraBlur 2.6% 17387 08-19-19
254 1stKirbyever 2.5% 17393 08-19-19
255 TimTH 2.4% 17412 08-19-19
256 Th4tN1nj4Turtl3 2.3% 17437 08-19-19
257 Cort_pso 2.3% 17443 08-19-19
258 Doom-9 2.3% 17446 08-19-19
259 ieatatsonic 2.2% 17453 08-19-19
260 Mariosonic15 2.2% 17460 08-19-19
261 MStitomix 2.1% 17472 08-19-19
262 HermitHelmet 2.1% 17477 08-19-19
263 arcfx1985 2.1% 17482 08-19-19
264 SuperSonic71087 2.0% 17489 08-19-19
265 Got4n 2.0% 17498 08-19-19
266 Artie 1.9% 17502 08-19-19
267 Questionguy555 1.9% 17503 08-19-19
268 Jose_15 1.9% 17507 08-19-19
269 djmat 1.9% 17517 08-19-19
270 SuperSonicfan9595 1.8% 17526 08-19-19
271 sonicandamy Player Banned 1.7% 17545 08-19-19
272 LancexExWx 1.7% 17550 08-19-19
273 Paixii 1.6% 17554 08-19-19
274 son1cgu1tar 1.6% 17558 08-19-19
275 Heroes_Hater 1.6% 17566 08-19-19
276 BallzeH 1.5% 17574 08-19-19
277 Mankster101 1.5% 17581 08-19-19
278 Jamixesa 1.5% 17582 08-19-19
279 BecauseWarAnvil 1.5% 17585 08-19-19
280 Shanekilz 1.4% 17592 08-19-19
281 Crydio 1.4% 17595 08-19-19
282 SpiritDragon1995 1.4% 17597 08-19-19
283 MarewBFN 1.3% 17613 08-19-19
284 stanski 1.3% 17615 08-19-19
285 ArthurVGCP 1.3% 17617 08-19-19
286 Sonique Hedgehog 1.3% 17618 08-19-19
287 Blue Infamy 1.2% 17631 08-19-19
288 p0ker 1.2% 17634 08-19-19
289 ErrortheCucco 1.2% 17642 08-19-19
290 Rikum22 1.1% 17645 08-19-19
291 Arthas 1.1% 17648 08-19-19
292 sonic1001 1.1% 17653 08-19-19
293 AJSIV 1.1% 17660 08-19-19
293 syco1098 1.1% 17660 08-19-19
295 WingedInsignia 1.0% 17661 08-19-19
296 Sonic the Hedgehod16 1.0% 17663 08-19-19
297 ASINISTERTACO 1.0% 17671 08-19-19
298 sonicfan9 1.0% 17676 08-19-19
299 BlackArmsShadow 0.9% 17687 08-19-19
299 themachoman202 0.9% 17687 08-19-19
301 shadowblast63 Player Banned 0.9% 17691 08-19-19
302 Fivavoa 0.9% 17696 08-19-19
303 Ben1502 0.8% 17697 08-19-19
303 Greham Adelphis 0.8% 17697 08-19-19
305 MastaToken 0.8% 17698 08-19-19
305 Mr. Jones 0.8% 17698 08-19-19
307 darkstarblaze 0.8% 17699 08-19-19
307 TommyeAsY 0.8% 17699 08-19-19
309 ptorflaxendrosis 0.8% 17705 08-19-19
310 FlandreScarlet9999vr 0.8% 17708 08-19-19
311 Gvozdevik 0.8% 17709 08-19-19
312 Zeldocto 0.8% 17711 08-19-19
313 Knuckles 0.8% 17712 08-19-19
314 BeeAwwb 0.7% 17716 08-19-19
315 KaM Mark MaK 0.7% 17719 08-19-19
316 ShadouZaHejjihoggu 0.7% 17722 08-19-19
317 Sogeking 0.7% 17730 08-19-19
317 Sonic The Star 0.7% 17730 08-19-19
319 darkersupershadic 0.7% 17731 08-19-19
320 Sonic62 0.6% 17734 08-19-19
321 Sarger001 0.6% 17738 08-19-19
322 SonicK100 0.6% 17739 08-19-19
323 Grady219 0.6% 17740 08-19-19
324 dragondragon18 0.6% 17741 08-19-19
324 Shadygamerfreak 0.6% 17741 08-19-19
326 Jawaah 0.6% 17744 08-19-19
327 Antek 0.6% 17748 08-19-19
328 SpinDashMaster 0.6% 17749 08-19-19
329 Klaus 0.5% 17750 08-19-19
330 SilverK 0.5% 17753 08-19-19
331 BioShadow 0.5% 17757 08-19-19
332 Videogamer123 0.5% 17764 08-19-19
333 oTaiIilLsS 0.4% 17774 08-19-19
334 isaihtb11 0.4% 17778 08-19-19
334 OhNoes! 0.4% 17778 08-19-19
336 Mad Andy 0.4% 17779 08-19-19
337 zaktu40 0.4% 17780 08-19-19
338 S-MS32X-S 0.4% 17782 08-19-19
339 gaara1234 0.4% 17784 08-19-19
340 gamed00d 0.3% 17789 08-19-19
341 Mister_Slick 0.3% 17794 08-19-19
342 Sonic06Fan 0.3% 17799 08-19-19
343 Rush Hero 0.3% 17800 08-19-19
344 ChaosNexuss 0.3% 17801 08-19-19
345 SonicMega167 0.2% 17806 08-19-19
346 Iwannabelink 0.2% 17808 08-19-19
347 sonknuck23 0.2% 17810 08-19-19
348 gamer1245 0.2% 17817 08-19-19
349 DanielTheFalcon 0.2% 17818 08-19-19
350 Burningskull123 0.1% 17825 08-19-19
351 Sonicontherun 0.1% 17836 08-19-19
352 Lil_Dude 0.1% 17838 08-19-19
353 antiwwe 0.0% 17842 08-19-19
354 Cbwade15 0.0% 17846 08-19-19
354 Genuine Hedgehog 0.0% 17846 08-19-19
356 Tyrouble 0.0% 17850 08-19-19
357 MegabombBlade 0.0% 17857 08-19-19
357 neji_hyuuga 0.0% 17857 08-19-19
357 Over 0.0% 17857 08-19-19
357 sdj6707 Player Banned 0.0% 17857 08-19-19
357 Tran Sonic Fan Player Banned 0.0% 17857 08-19-19

This page is using the New Data Table System. [FUTURE]

Game ID: 3 | Category ID: 10
Hits: 75,746 | Hits This Month: 161 | DB Calls: 21 | Mem Usage: 5.89 MB | Time: 0.13s | Printable

The Sonic Center v3.9
Copyright 2003-2011 by The Sonic Center Team.